sensor_id;sensor_type;location;lat;lon;timestamp;P1;durP1;ratioP1;P2;durP2;ratioP2
7807;SDS011;3949;49.254;8.894;2023-06-22T00:01:55;6.30;;;5.70;;
7807;SDS011;3949;49.254;8.894;2023-06-22T00:04:21;6.40;;;5.80;;
7807;SDS011;3949;49.254;8.894;2023-06-22T00:06:47;6.13;;;5.63;;
7807;SDS011;3949;49.254;8.894;2023-06-22T00:09:13;5.80;;;5.30;;
7807;SDS011;3949;49.254;8.894;2023-06-22T00:11:39;6.60;;;5.60;;
7807;SDS011;3949;49.254;8.894;2023-06-22T00:14:05;7.07;;;6.37;;
7807;SDS011;3949;49.254;8.894;2023-06-22T00:16:31;7.40;;;6.30;;
7807;SDS011;3949;49.254;8.894;2023-06-22T00:18:57;7.20;;;6.47;;
7807;SDS011;3949;49.254;8.894;2023-06-22T00:21:26;7.60;;;6.40;;
7807;SDS011;3949;49.254;8.894;2023-06-22T00:23:52;6.07;;;5.47;;
7807;SDS011;3949;49.254;8.894;2023-06-22T00:26:18;6.70;;;6.10;;
7807;SDS011;3949;49.254;8.894;2023-06-22T00:28:44;7.03;;;6.07;;
7807;SDS011;3949;49.254;8.894;2023-06-22T00:31:10;5.93;;;5.37;;
7807;SDS011;3949;49.254;8.894;2023-06-22T00:33:36;6.03;;;5.43;;
7807;SDS011;3949;49.254;8.894;2023-06-22T00:36:02;6.77;;;6.07;;
7807;SDS011;3949;49.254;8.894;2023-06-22T00:38:28;6.00;;;5.50;;
7807;SDS011;3949;49.254;8.894;2023-06-22T00:40:54;6.27;;;5.67;;
7807;SDS011;3949;49.254;8.894;2023-06-22T00:43:20;6.73;;;6.13;;
7807;SDS011;3949;49.254;8.894;2023-06-22T00:45:46;5.73;;;5.23;;
7807;SDS011;3949;49.254;8.894;2023-06-22T00:48:13;7.07;;;6.43;;
7807;SDS011;3949;49.254;8.894;2023-06-22T00:50:39;6.90;;;6.20;;
7807;SDS011;3949;49.254;8.894;2023-06-22T00:53:06;6.47;;;5.83;;
7807;SDS011;3949;49.254;8.894;2023-06-22T00:55:42;7.70;;;7.00;;
7807;SDS011;3949;49.254;8.894;2023-06-22T00:58:10;6.77;;;6.13;;
7807;SDS011;3949;49.254;8.894;2023-06-22T01:00:37;6.47;;;5.47;;
7807;SDS011;3949;49.254;8.894;2023-06-22T01:03:03;6.50;;;5.90;;
7807;SDS011;3949;49.254;8.894;2023-06-22T01:05:33;7.97;;;6.10;;
7807;SDS011;3949;49.254;8.894;2023-06-22T01:10:45;7.73;;;6.20;;
7807;SDS011;3949;49.254;8.894;2023-06-22T01:13:16;9.83;;;6.57;;
7807;SDS011;3949;49.254;8.894;2023-06-22T01:15:47;9.10;;;6.43;;
7807;SDS011;3949;49.254;8.894;2023-06-22T01:18:15;7.93;;;6.70;;
7807;SDS011;3949;49.254;8.894;2023-06-22T01:20:42;8.13;;;6.77;;
7807;SDS011;3949;49.254;8.894;2023-06-22T01:25:46;6.73;;;6.13;;
7807;SDS011;3949;49.254;8.894;2023-06-22T01:28:36;11.77;;;9.83;;
7807;SDS011;3949;49.254;8.894;2023-06-22T01:31:03;7.97;;;7.17;;
7807;SDS011;3949;49.254;8.894;2023-06-22T01:33:31;7.23;;;6.63;;
7807;SDS011;3949;49.254;8.894;2023-06-22T01:35:58;7.37;;;6.20;;
7807;SDS011;3949;49.254;8.894;2023-06-22T01:38:25;7.17;;;6.57;;
7807;SDS011;3949;49.254;8.894;2023-06-22T01:40:51;6.83;;;6.23;;
7807;SDS011;3949;49.254;8.894;2023-06-22T01:43:18;7.77;;;6.80;;
7807;SDS011;3949;49.254;8.894;2023-06-22T01:45:45;7.90;;;7.10;;
7807;SDS011;3949;49.254;8.894;2023-06-22T01:48:11;13.37;;;7.33;;
7807;SDS011;3949;49.254;8.894;2023-06-22T01:50:36;10.03;;;6.77;;
7807;SDS011;3949;49.254;8.894;2023-06-22T01:53:02;7.37;;;6.77;;
7807;SDS011;3949;49.254;8.894;2023-06-22T01:55:30;7.47;;;6.77;;
7807;SDS011;3949;49.254;8.894;2023-06-22T01:57:56;8.13;;;7.43;;
7807;SDS011;3949;49.254;8.894;2023-06-22T02:00:22;8.90;;;8.00;;
7807;SDS011;3949;49.254;8.894;2023-06-22T02:03:23;7.93;;;7.23;;
7807;SDS011;3949;49.254;8.894;2023-06-22T02:05:52;8.40;;;7.50;;
7807;SDS011;3949;49.254;8.894;2023-06-22T02:08:20;6.50;;;5.90;;
7807;SDS011;3949;49.254;8.894;2023-06-22T02:10:48;8.30;;;7.40;;
7807;SDS011;3949;49.254;8.894;2023-06-22T02:13:14;9.43;;;7.83;;
7807;SDS011;3949;49.254;8.894;2023-06-22T02:15:40;7.37;;;6.70;;
7807;SDS011;3949;49.254;8.894;2023-06-22T02:18:06;7.37;;;6.70;;
7807;SDS011;3949;49.254;8.894;2023-06-22T02:20:32;7.97;;;7.27;;
7807;SDS011;3949;49.254;8.894;2023-06-22T02:23:01;8.20;;;7.47;;
7807;SDS011;3949;49.254;8.894;2023-06-22T02:25:27;8.13;;;7.40;;
7807;SDS011;3949;49.254;8.894;2023-06-22T02:27:53;9.03;;;8.07;;
7807;SDS011;3949;49.254;8.894;2023-06-22T02:30:19;9.10;;;8.23;;
7807;SDS011;3949;49.254;8.894;2023-06-22T02:32:45;8.63;;;7.87;;
7807;SDS011;3949;49.254;8.894;2023-06-22T02:35:11;8.13;;;7.33;;
7807;SDS011;3949;49.254;8.894;2023-06-22T02:37:38;8.53;;;7.77;;
7807;SDS011;3949;49.254;8.894;2023-06-22T02:40:06;7.60;;;6.90;;
7807;SDS011;3949;49.254;8.894;2023-06-22T02:42:34;8.30;;;7.50;;
7807;SDS011;3949;49.254;8.894;2023-06-22T02:45:00;8.37;;;7.50;;
7807;SDS011;3949;49.254;8.894;2023-06-22T02:47:26;8.13;;;7.33;;
7807;SDS011;3949;49.254;8.894;2023-06-22T02:49:52;6.63;;;6.10;;
7807;SDS011;3949;49.254;8.894;2023-06-22T02:52:18;10.20;;;9.30;;
7807;SDS011;3949;49.254;8.894;2023-06-22T02:54:44;8.77;;;8.07;;
7807;SDS011;3949;49.254;8.894;2023-06-22T02:57:11;8.80;;;7.90;;
7807;SDS011;3949;49.254;8.894;2023-06-22T02:59:38;7.70;;;7.00;;
7807;SDS011;3949;49.254;8.894;2023-06-22T03:02:05;9.17;;;7.13;;
7807;SDS011;3949;49.254;8.894;2023-06-22T03:04:31;6.50;;;5.93;;
7807;SDS011;3949;49.254;8.894;2023-06-22T03:06:57;7.20;;;6.50;;
7807;SDS011;3949;49.254;8.894;2023-06-22T03:09:26;7.33;;;6.63;;
7807;SDS011;3949;49.254;8.894;2023-06-22T03:11:55;8.70;;;7.80;;
7807;SDS011;3949;49.254;8.894;2023-06-22T03:14:21;8.73;;;7.93;;
7807;SDS011;3949;49.254;8.894;2023-06-22T03:16:47;10.53;;;9.53;;
7807;SDS011;3949;49.254;8.894;2023-06-22T03:19:13;9.60;;;8.60;;
7807;SDS011;3949;49.254;8.894;2023-06-22T03:21:39;8.30;;;7.60;;
7807;SDS011;3949;49.254;8.894;2023-06-22T03:24:06;9.17;;;8.37;;
7807;SDS011;3949;49.254;8.894;2023-06-22T03:26:32;8.13;;;7.33;;
7807;SDS011;3949;49.254;8.894;2023-06-22T03:28:58;7.23;;;6.53;;
7807;SDS011;3949;49.254;8.894;2023-06-22T03:31:24;9.10;;;8.27;;
7807;SDS011;3949;49.254;8.894;2023-06-22T03:33:50;7.00;;;6.40;;
7807;SDS011;3949;49.254;8.894;2023-06-22T03:36:17;9.93;;;8.37;;
7807;SDS011;3949;49.254;8.894;2023-06-22T03:38:47;8.80;;;7.93;;
7807;SDS011;3949;49.254;8.894;2023-06-22T03:41:13;8.10;;;7.40;;
7807;SDS011;3949;49.254;8.894;2023-06-22T03:43:39;9.10;;;8.20;;
7807;SDS011;3949;49.254;8.894;2023-06-22T03:46:05;9.93;;;9.03;;
7807;SDS011;3949;49.254;8.894;2023-06-22T03:48:31;11.13;;;9.13;;
7807;SDS011;3949;49.254;8.894;2023-06-22T03:50:58;9.10;;;8.00;;
7807;SDS011;3949;49.254;8.894;2023-06-22T03:53:24;9.23;;;8.33;;
7807;SDS011;3949;49.254;8.894;2023-06-22T03:55:51;7.40;;;6.77;;
7807;SDS011;3949;49.254;8.894;2023-06-22T03:58:18;7.30;;;6.70;;
7807;SDS011;3949;49.254;8.894;2023-06-22T04:00:45;7.27;;;6.57;;
7807;SDS011;3949;49.254;8.894;2023-06-22T04:03:11;7.53;;;6.83;;
7807;SDS011;3949;49.254;8.894;2023-06-22T04:05:38;7.10;;;6.50;;
7807;SDS011;3949;49.254;8.894;2023-06-22T04:08:04;9.37;;;8.47;;
7807;SDS011;3949;49.254;8.894;2023-06-22T04:10:30;10.30;;;9.30;;
7807;SDS011;3949;49.254;8.894;2023-06-22T04:12:56;9.63;;;8.63;;
7807;SDS011;3949;49.254;8.894;2023-06-22T04:15:22;11.13;;;9.97;;
7807;SDS011;3949;49.254;8.894;2023-06-22T04:17:48;9.93;;;8.87;;
7807;SDS011;3949;49.254;8.894;2023-06-22T04:20:14;10.83;;;9.70;;
7807;SDS011;3949;49.254;8.894;2023-06-22T04:22:40;10.43;;;8.97;;
7807;SDS011;3949;49.254;8.894;2023-06-22T04:25:06;10.53;;;9.33;;
7807;SDS011;3949;49.254;8.894;2023-06-22T04:27:35;8.17;;;7.47;;
7807;SDS011;3949;49.254;8.894;2023-06-22T04:30:02;8.03;;;7.33;;
7807;SDS011;3949;49.254;8.894;2023-06-22T04:32:29;11.10;;;9.93;;
7807;SDS011;3949;49.254;8.894;2023-06-22T04:34:55;10.43;;;9.33;;
7807;SDS011;3949;49.254;8.894;2023-06-22T04:37:21;9.53;;;8.63;;
7807;SDS011;3949;49.254;8.894;2023-06-22T04:39:48;11.47;;;8.90;;
7807;SDS011;3949;49.254;8.894;2023-06-22T04:42:15;10.70;;;9.70;;
7807;SDS011;3949;49.254;8.894;2023-06-22T04:44:41;14.13;;;10.07;;
7807;SDS011;3949;49.254;8.894;2023-06-22T04:47:07;10.47;;;9.37;;
7807;SDS011;3949;49.254;8.894;2023-06-22T04:49:34;11.40;;;10.10;;
7807;SDS011;3949;49.254;8.894;2023-06-22T04:52:03;10.97;;;9.83;;
7807;SDS011;3949;49.254;8.894;2023-06-22T04:54:29;11.60;;;10.60;;
7807;SDS011;3949;49.254;8.894;2023-06-22T04:56:58;11.30;;;10.23;;
7807;SDS011;3949;49.254;8.894;2023-06-22T04:59:24;10.07;;;9.07;;
7807;SDS011;3949;49.254;8.894;2023-06-22T05:01:53;11.00;;;9.90;;
7807;SDS011;3949;49.254;8.894;2023-06-22T05:04:19;10.43;;;9.53;;
7807;SDS011;3949;49.254;8.894;2023-06-22T05:06:45;11.43;;;10.33;;
7807;SDS011;3949;49.254;8.894;2023-06-22T05:09:11;11.90;;;10.70;;
7807;SDS011;3949;49.254;8.894;2023-06-22T05:11:37;11.53;;;10.33;;
7807;SDS011;3949;49.254;8.894;2023-06-22T05:14:03;12.03;;;10.83;;
7807;SDS011;3949;49.254;8.894;2023-06-22T05:16:29;11.07;;;10.10;;
7807;SDS011;3949;49.254;8.894;2023-06-22T05:18:55;12.90;;;11.03;;
7807;SDS011;3949;49.254;8.894;2023-06-22T05:21:24;10.37;;;9.30;;
7807;SDS011;3949;49.254;8.894;2023-06-22T05:23:51;11.20;;;10.23;;
7807;SDS011;3949;49.254;8.894;2023-06-22T05:26:18;16.87;;;12.43;;
7807;SDS011;3949;49.254;8.894;2023-06-22T05:28:44;12.97;;;10.57;;
7807;SDS011;3949;49.254;8.894;2023-06-22T05:31:11;11.50;;;10.30;;
7807;SDS011;3949;49.254;8.894;2023-06-22T05:33:37;10.30;;;9.40;;
7807;SDS011;3949;49.254;8.894;2023-06-22T05:36:03;11.30;;;10.17;;
7807;SDS011;3949;49.254;8.894;2023-06-22T05:38:29;10.30;;;9.30;;
7807;SDS011;3949;49.254;8.894;2023-06-22T05:40:55;10.07;;;9.13;;
7807;SDS011;3949;49.254;8.894;2023-06-22T05:43:21;9.17;;;8.40;;
7807;SDS011;3949;49.254;8.894;2023-06-22T05:45:47;10.33;;;9.20;;
7807;SDS011;3949;49.254;8.894;2023-06-22T05:48:13;9.63;;;8.73;;
7807;SDS011;3949;49.254;8.894;2023-06-22T05:50:39;8.87;;;8.10;;
7807;SDS011;3949;49.254;8.894;2023-06-22T05:53:05;9.67;;;8.77;;
7807;SDS011;3949;49.254;8.894;2023-06-22T05:55:32;9.23;;;8.33;;
7807;SDS011;3949;49.254;8.894;2023-06-22T05:57:58;9.47;;;8.57;;
7807;SDS011;3949;49.254;8.894;2023-06-22T06:00:24;9.00;;;8.03;;
7807;SDS011;3949;49.254;8.894;2023-06-22T06:02:50;8.63;;;7.77;;
7807;SDS011;3949;49.254;8.894;2023-06-22T06:05:16;9.07;;;7.67;;
7807;SDS011;3949;49.254;8.894;2023-06-22T06:07:43;8.30;;;7.50;;
7807;SDS011;3949;49.254;8.894;2023-06-22T06:10:09;8.50;;;7.70;;
7807;SDS011;3949;49.254;8.894;2023-06-22T06:12:35;7.93;;;7.20;;
7807;SDS011;3949;49.254;8.894;2023-06-22T06:15:02;8.30;;;6.57;;
7807;SDS011;3949;49.254;8.894;2023-06-22T06:17:28;7.10;;;6.43;;
7807;SDS011;3949;49.254;8.894;2023-06-22T06:19:54;7.10;;;6.40;;
7807;SDS011;3949;49.254;8.894;2023-06-22T06:22:23;7.80;;;7.00;;
7807;SDS011;3949;49.254;8.894;2023-06-22T06:24:49;7.77;;;6.53;;
7807;SDS011;3949;49.254;8.894;2023-06-22T06:27:15;7.77;;;7.03;;
7807;SDS011;3949;49.254;8.894;2023-06-22T06:29:46;7.27;;;6.57;;
7807;SDS011;3949;49.254;8.894;2023-06-22T06:32:13;7.50;;;6.80;;
7807;SDS011;3949;49.254;8.894;2023-06-22T06:34:40;7.13;;;6.43;;
7807;SDS011;3949;49.254;8.894;2023-06-22T06:37:06;7.13;;;6.43;;
7807;SDS011;3949;49.254;8.894;2023-06-22T06:39:31;6.83;;;6.13;;
7807;SDS011;3949;49.254;8.894;2023-06-22T06:41:57;7.33;;;6.60;;
7807;SDS011;3949;49.254;8.894;2023-06-22T06:44:23;7.10;;;6.50;;
7807;SDS011;3949;49.254;8.894;2023-06-22T06:46:49;7.73;;;7.03;;
7807;SDS011;3949;49.254;8.894;2023-06-22T06:49:15;6.73;;;6.10;;
7807;SDS011;3949;49.254;8.894;2023-06-22T06:51:41;7.87;;;6.80;;
7807;SDS011;3949;49.254;8.894;2023-06-22T06:54:07;7.47;;;6.80;;
7807;SDS011;3949;49.254;8.894;2023-06-22T06:56:33;7.50;;;6.47;;
7807;SDS011;3949;49.254;8.894;2023-06-22T06:58:59;7.00;;;6.37;;
7807;SDS011;3949;49.254;8.894;2023-06-22T07:01:25;7.40;;;6.50;;
7807;SDS011;3949;49.254;8.894;2023-06-22T07:03:51;8.63;;;7.10;;
7807;SDS011;3949;49.254;8.894;2023-06-22T07:06:18;6.83;;;6.13;;
7807;SDS011;3949;49.254;8.894;2023-06-22T07:08:44;6.60;;;6.00;;
7807;SDS011;3949;49.254;8.894;2023-06-22T07:11:10;7.67;;;6.73;;
7807;SDS011;3949;49.254;8.894;2023-06-22T07:13:36;7.47;;;6.77;;
7807;SDS011;3949;49.254;8.894;2023-06-22T07:16:03;7.13;;;6.40;;
7807;SDS011;3949;49.254;8.894;2023-06-22T07:18:29;6.53;;;5.93;;
7807;SDS011;3949;49.254;8.894;2023-06-22T07:20:55;6.87;;;6.27;;
7807;SDS011;3949;49.254;8.894;2023-06-22T07:23:21;8.00;;;5.80;;
7807;SDS011;3949;49.254;8.894;2023-06-22T07:25:47;6.70;;;6.10;;
7807;SDS011;3949;49.254;8.894;2023-06-22T07:28:14;6.27;;;5.60;;
7807;SDS011;3949;49.254;8.894;2023-06-22T07:30:40;6.00;;;5.47;;
7807;SDS011;3949;49.254;8.894;2023-06-22T07:33:06;6.80;;;6.07;;
7807;SDS011;3949;49.254;8.894;2023-06-22T07:35:33;6.73;;;6.03;;
7807;SDS011;3949;49.254;8.894;2023-06-22T07:37:59;7.10;;;6.40;;
7807;SDS011;3949;49.254;8.894;2023-06-22T07:40:25;6.93;;;6.10;;
7807;SDS011;3949;49.254;8.894;2023-06-22T07:42:51;6.23;;;5.63;;
7807;SDS011;3949;49.254;8.894;2023-06-22T07:45:18;7.37;;;6.07;;
7807;SDS011;3949;49.254;8.894;2023-06-22T07:47:44;5.60;;;5.13;;
7807;SDS011;3949;49.254;8.894;2023-06-22T07:50:13;7.07;;;5.60;;
7807;SDS011;3949;49.254;8.894;2023-06-22T07:52:39;6.10;;;5.50;;
7807;SDS011;3949;49.254;8.894;2023-06-22T07:55:05;5.80;;;5.30;;
7807;SDS011;3949;49.254;8.894;2023-06-22T07:57:31;5.50;;;5.10;;
7807;SDS011;3949;49.254;8.894;2023-06-22T08:00:02;7.43;;;5.33;;
7807;SDS011;3949;49.254;8.894;2023-06-22T08:02:41;7.47;;;5.90;;
7807;SDS011;3949;49.254;8.894;2023-06-22T08:05:08;6.30;;;5.70;;
7807;SDS011;3949;49.254;8.894;2023-06-22T08:07:35;6.13;;;5.53;;
7807;SDS011;3949;49.254;8.894;2023-06-22T08:10:02;5.90;;;5.37;;
7807;SDS011;3949;49.254;8.894;2023-06-22T08:12:29;6.07;;;5.57;;
7807;SDS011;3949;49.254;8.894;2023-06-22T08:14:55;6.53;;;5.50;;
7807;SDS011;3949;49.254;8.894;2023-06-22T08:17:22;9.00;;;8.10;;
7807;SDS011;3949;49.254;8.894;2023-06-22T08:19:48;5.80;;;5.37;;
7807;SDS011;3949;49.254;8.894;2023-06-22T08:22:14;5.63;;;5.13;;
7807;SDS011;3949;49.254;8.894;2023-06-22T08:24:40;5.93;;;5.43;;
7807;SDS011;3949;49.254;8.894;2023-06-22T08:27:07;5.90;;;5.40;;
7807;SDS011;3949;49.254;8.894;2023-06-22T08:29:40;7.28;;;6.47;;
7807;SDS011;3949;49.254;8.894;2023-06-22T08:32:12;7.38;;;5.57;;
7807;SDS011;3949;49.254;8.894;2023-06-22T08:34:38;5.65;;;5.15;;
7807;SDS011;3949;49.254;8.894;2023-06-22T08:37:07;5.40;;;5.00;;
7807;SDS011;3949;49.254;8.894;2023-06-22T08:39:33;5.03;;;4.47;;
7807;SDS011;3949;49.254;8.894;2023-06-22T08:41:59;4.90;;;4.50;;
7807;SDS011;3949;49.254;8.894;2023-06-22T08:44:25;4.55;;;4.15;;
7807;SDS011;3949;49.254;8.894;2023-06-22T08:46:51;5.63;;;4.32;;
7807;SDS011;3949;49.254;8.894;2023-06-22T08:49:17;5.07;;;4.38;;
7807;SDS011;3949;49.254;8.894;2023-06-22T08:51:42;6.75;;;4.65;;
7807;SDS011;3949;49.254;8.894;2023-06-22T08:54:10;4.50;;;4.10;;
7807;SDS011;3949;49.254;8.894;2023-06-22T08:56:36;7.13;;;4.72;;
7807;SDS011;3949;49.254;8.894;2023-06-22T08:59:02;5.15;;;4.65;;
7807;SDS011;3949;49.254;8.894;2023-06-22T09:01:28;5.28;;;4.78;;
7807;SDS011;3949;49.254;8.894;2023-06-22T09:03:54;4.93;;;4.38;;
7807;SDS011;3949;49.254;8.894;2023-06-22T09:06:22;5.35;;;4.40;;
7807;SDS011;3949;49.254;8.894;2023-06-22T09:08:49;4.95;;;4.47;;
7807;SDS011;3949;49.254;8.894;2023-06-22T09:11:15;5.90;;;4.80;;
7807;SDS011;3949;49.254;8.894;2023-06-22T09:13:41;5.65;;;4.78;;
7807;SDS011;3949;49.254;8.894;2023-06-22T09:16:07;7.20;;;5.20;;
7807;SDS011;3949;49.254;8.894;2023-06-22T09:18:36;5.53;;;4.40;;
7807;SDS011;3949;49.254;8.894;2023-06-22T09:21:02;4.95;;;4.22;;
7807;SDS011;3949;49.254;8.894;2023-06-22T09:23:28;5.03;;;4.53;;
7807;SDS011;3949;49.254;8.894;2023-06-22T09:25:54;6.00;;;4.53;;
7807;SDS011;3949;49.254;8.894;2023-06-22T09:28:20;6.38;;;4.68;;
7807;SDS011;3949;49.254;8.894;2023-06-22T09:30:46;4.88;;;4.35;;
7807;SDS011;3949;49.254;8.894;2023-06-22T09:33:12;5.60;;;4.47;;
7807;SDS011;3949;49.254;8.894;2023-06-22T09:35:38;6.15;;;5.00;;
7807;SDS011;3949;49.254;8.894;2023-06-22T09:38:04;7.32;;;5.15;;
7807;SDS011;3949;49.254;8.894;2023-06-22T09:40:30;4.75;;;4.35;;
7807;SDS011;3949;49.254;8.894;2023-06-22T09:42:57;5.20;;;4.35;;
7807;SDS011;3949;49.254;8.894;2023-06-22T09:45:26;4.97;;;4.47;;
7807;SDS011;3949;49.254;8.894;2023-06-22T09:47:52;5.55;;;4.10;;
7807;SDS011;3949;49.254;8.894;2023-06-22T09:50:18;4.90;;;4.50;;
7807;SDS011;3949;49.254;8.894;2023-06-22T09:52:44;4.30;;;3.90;;
7807;SDS011;3949;49.254;8.894;2023-06-22T09:55:15;5.22;;;4.55;;
7807;SDS011;3949;49.254;8.894;2023-06-22T09:57:41;5.43;;;4.53;;
7807;SDS011;3949;49.254;8.894;2023-06-22T10:00:07;6.40;;;4.68;;
7807;SDS011;3949;49.254;8.894;2023-06-22T10:02:34;4.80;;;4.15;;
7807;SDS011;3949;49.254;8.894;2023-06-22T10:05:00;4.43;;;4.00;;
7807;SDS011;3949;49.254;8.894;2023-06-22T10:07:26;5.32;;;4.00;;
7807;SDS011;3949;49.254;8.894;2023-06-22T10:09:55;7.07;;;4.85;;
7807;SDS011;3949;49.254;8.894;2023-06-22T10:12:20;5.07;;;4.63;;
7807;SDS011;3949;49.254;8.894;2023-06-22T10:14:46;7.18;;;4.47;;
7807;SDS011;3949;49.254;8.894;2023-06-22T10:17:12;5.10;;;4.60;;
7807;SDS011;3949;49.254;8.894;2023-06-22T10:19:38;4.82;;;4.43;;
7807;SDS011;3949;49.254;8.894;2023-06-22T10:22:06;6.30;;;4.50;;
7807;SDS011;3949;49.254;8.894;2023-06-22T10:24:32;5.18;;;4.78;;
7807;SDS011;3949;49.254;8.894;2023-06-22T10:26:58;4.63;;;4.22;;
7807;SDS011;3949;49.254;8.894;2023-06-22T10:29:24;5.60;;;4.93;;
7807;SDS011;3949;49.254;8.894;2023-06-22T10:31:50;4.82;;;4.40;;
7807;SDS011;3949;49.254;8.894;2023-06-22T10:34:16;5.07;;;4.57;;
7807;SDS011;3949;49.254;8.894;2023-06-22T10:36:42;4.35;;;3.95;;
7807;SDS011;3949;49.254;8.894;2023-06-22T10:39:08;5.88;;;4.45;;
7807;SDS011;3949;49.254;8.894;2023-06-22T10:41:35;5.80;;;4.57;;
7807;SDS011;3949;49.254;8.894;2023-06-22T10:44:00;5.60;;;4.38;;
7807;SDS011;3949;49.254;8.894;2023-06-22T10:46:27;5.70;;;4.70;;
7807;SDS011;3949;49.254;8.894;2023-06-22T10:48:53;5.38;;;4.30;;
7807;SDS011;3949;49.254;8.894;2023-06-22T10:51:20;6.38;;;4.50;;
7807;SDS011;3949;49.254;8.894;2023-06-22T10:53:46;6.00;;;4.75;;
7807;SDS011;3949;49.254;8.894;2023-06-22T10:56:12;5.25;;;4.22;;
7807;SDS011;3949;49.254;8.894;2023-06-22T10:58:38;6.22;;;4.40;;
7807;SDS011;3949;49.254;8.894;2023-06-22T11:01:04;6.10;;;4.47;;
7807;SDS011;3949;49.254;8.894;2023-06-22T11:03:30;4.93;;;4.43;;
7807;SDS011;3949;49.254;8.894;2023-06-22T11:05:56;5.00;;;4.50;;
7807;SDS011;3949;49.254;8.894;2023-06-22T11:08:22;5.57;;;4.78;;
7807;SDS011;3949;49.254;8.894;2023-06-22T11:10:48;7.60;;;4.70;;
7807;SDS011;3949;49.254;8.894;2023-06-22T11:13:14;5.70;;;4.55;;
7807;SDS011;3949;49.254;8.894;2023-06-22T11:15:40;6.90;;;4.70;;
7807;SDS011;3949;49.254;8.894;2023-06-22T11:18:06;6.43;;;4.90;;
7807;SDS011;3949;49.254;8.894;2023-06-22T11:20:33;5.60;;;4.55;;
7807;SDS011;3949;49.254;8.894;2023-06-22T11:23:03;9.35;;;5.07;;
7807;SDS011;3949;49.254;8.894;2023-06-22T11:25:29;6.05;;;4.55;;
7807;SDS011;3949;49.254;8.894;2023-06-22T11:27:55;5.97;;;4.55;;
7807;SDS011;3949;49.254;8.894;2023-06-22T11:30:21;6.80;;;4.55;;
7807;SDS011;3949;49.254;8.894;2023-06-22T11:32:48;5.95;;;4.50;;
7807;SDS011;3949;49.254;8.894;2023-06-22T11:35:14;6.68;;;5.03;;
7807;SDS011;3949;49.254;8.894;2023-06-22T11:37:40;8.82;;;4.82;;
7807;SDS011;3949;49.254;8.894;2023-06-22T11:40:07;5.35;;;4.85;;
7807;SDS011;3949;49.254;8.894;2023-06-22T11:42:34;7.10;;;5.05;;
7807;SDS011;3949;49.254;8.894;2023-06-22T11:45:00;5.00;;;4.57;;
7807;SDS011;3949;49.254;8.894;2023-06-22T11:47:26;5.18;;;4.68;;
7807;SDS011;3949;49.254;8.894;2023-06-22T11:49:52;5.80;;;5.20;;
7807;SDS011;3949;49.254;8.894;2023-06-22T11:52:18;5.68;;;4.78;;
7807;SDS011;3949;49.254;8.894;2023-06-22T11:54:44;7.05;;;4.50;;
7807;SDS011;3949;49.254;8.894;2023-06-22T11:57:10;7.22;;;4.72;;
7807;SDS011;3949;49.254;8.894;2023-06-22T11:59:36;6.20;;;4.80;;
7807;SDS011;3949;49.254;8.894;2023-06-22T12:02:02;10.15;;;6.25;;
7807;SDS011;3949;49.254;8.894;2023-06-22T12:04:30;7.25;;;4.78;;
7807;SDS011;3949;49.254;8.894;2023-06-22T12:06:56;5.38;;;4.88;;
7807;SDS011;3949;49.254;8.894;2023-06-22T12:09:23;5.60;;;5.07;;
7807;SDS011;3949;49.254;8.894;2023-06-22T12:11:49;20.17;;;18.15;;
7807;SDS011;3949;49.254;8.894;2023-06-22T12:14:15;7.63;;;6.75;;
7807;SDS011;3949;49.254;8.894;2023-06-22T12:16:41;8.68;;;7.80;;
7807;SDS011;3949;49.254;8.894;2023-06-22T12:19:08;6.28;;;5.68;;
7807;SDS011;3949;49.254;8.894;2023-06-22T12:21:34;4.72;;;4.30;;
7807;SDS011;3949;49.254;8.894;2023-06-22T12:24:00;5.38;;;4.85;;
7807;SDS011;3949;49.254;8.894;2023-06-22T12:26:26;5.53;;;4.40;;
7807;SDS011;3949;49.254;8.894;2023-06-22T12:28:52;6.38;;;4.50;;
7807;SDS011;3949;49.254;8.894;2023-06-22T12:31:18;5.30;;;4.60;;
7807;SDS011;3949;49.254;8.894;2023-06-22T12:33:44;6.68;;;4.53;;
7807;SDS011;3949;49.254;8.894;2023-06-22T12:36:10;5.63;;;4.75;;
7807;SDS011;3949;49.254;8.894;2023-06-22T12:38:36;5.68;;;4.57;;
7807;SDS011;3949;49.254;8.894;2023-06-22T12:41:02;5.72;;;4.43;;
7807;SDS011;3949;49.254;8.894;2023-06-22T12:43:28;5.35;;;4.35;;
7807;SDS011;3949;49.254;8.894;2023-06-22T12:45:54;6.05;;;4.28;;
7807;SDS011;3949;49.254;8.894;2023-06-22T12:48:21;5.80;;;4.57;;
7807;SDS011;3949;49.254;8.894;2023-06-22T12:50:47;5.40;;;4.38;;
7807;SDS011;3949;49.254;8.894;2023-06-22T12:53:13;5.85;;;4.68;;
7807;SDS011;3949;49.254;8.894;2023-06-22T12:55:39;6.22;;;4.60;;
7807;SDS011;3949;49.254;8.894;2023-06-22T12:58:05;6.05;;;4.72;;
7807;SDS011;3949;49.254;8.894;2023-06-22T13:00:31;5.07;;;4.57;;
7807;SDS011;3949;49.254;8.894;2023-06-22T13:02:57;4.97;;;4.38;;
7807;SDS011;3949;49.254;8.894;2023-06-22T13:05:23;5.97;;;4.70;;
7807;SDS011;3949;49.254;8.894;2023-06-22T13:07:49;6.22;;;4.97;;
7807;SDS011;3949;49.254;8.894;2023-06-22T13:10:15;5.35;;;4.85;;
7807;SDS011;3949;49.254;8.894;2023-06-22T13:12:41;6.53;;;4.93;;
7807;SDS011;3949;49.254;8.894;2023-06-22T13:15:07;9.38;;;5.18;;
7807;SDS011;3949;49.254;8.894;2023-06-22T13:17:33;8.18;;;5.78;;
7807;SDS011;3949;49.254;8.894;2023-06-22T13:19:59;7.38;;;4.90;;
7807;SDS011;3949;49.254;8.894;2023-06-22T13:22:34;9.15;;;5.60;;
7807;SDS011;3949;49.254;8.894;2023-06-22T13:25:08;8.30;;;4.90;;
7807;SDS011;3949;49.254;8.894;2023-06-22T13:27:41;5.85;;;4.97;;
7807;SDS011;3949;49.254;8.894;2023-06-22T13:30:07;6.60;;;4.95;;
7807;SDS011;3949;49.254;8.894;2023-06-22T13:32:33;7.72;;;5.03;;
7807;SDS011;3949;49.254;8.894;2023-06-22T13:34:59;9.18;;;4.97;;
7807;SDS011;3949;49.254;8.894;2023-06-22T13:37:25;8.80;;;5.10;;
7807;SDS011;3949;49.254;8.894;2023-06-22T13:39:52;6.97;;;4.68;;
7807;SDS011;3949;49.254;8.894;2023-06-22T13:42:18;7.40;;;4.90;;
7807;SDS011;3949;49.254;8.894;2023-06-22T13:44:44;8.55;;;4.80;;
7807;SDS011;3949;49.254;8.894;2023-06-22T13:47:10;5.80;;;4.55;;
7807;SDS011;3949;49.254;8.894;2023-06-22T13:49:36;7.10;;;5.05;;
7807;SDS011;3949;49.254;8.894;2023-06-22T13:52:02;8.25;;;5.18;;
7807;SDS011;3949;49.254;8.894;2023-06-22T13:54:29;6.22;;;4.63;;
7807;SDS011;3949;49.254;8.894;2023-06-22T13:56:55;16.42;;;6.68;;
7807;SDS011;3949;49.254;8.894;2023-06-22T13:59:21;9.55;;;5.93;;
7807;SDS011;3949;49.254;8.894;2023-06-22T14:01:47;8.70;;;5.03;;
7807;SDS011;3949;49.254;8.894;2023-06-22T14:04:13;8.65;;;4.93;;
7807;SDS011;3949;49.254;8.894;2023-06-22T14:06:39;7.40;;;4.90;;
7807;SDS011;3949;49.254;8.894;2023-06-22T14:09:05;8.45;;;4.95;;
7807;SDS011;3949;49.254;8.894;2023-06-22T14:11:32;6.85;;;4.43;;
7807;SDS011;3949;49.254;8.894;2023-06-22T14:13:57;7.95;;;4.82;;
7807;SDS011;3949;49.254;8.894;2023-06-22T14:16:23;4.95;;;4.45;;
7807;SDS011;3949;49.254;8.894;2023-06-22T14:18:49;10.77;;;5.03;;
7807;SDS011;3949;49.254;8.894;2023-06-22T14:21:15;9.55;;;4.82;;
7807;SDS011;3949;49.254;8.894;2023-06-22T14:23:41;7.80;;;5.22;;
7807;SDS011;3949;49.254;8.894;2023-06-22T14:26:12;9.38;;;5.03;;
7807;SDS011;3949;49.254;8.894;2023-06-22T14:28:38;9.50;;;5.07;;
7807;SDS011;3949;49.254;8.894;2023-06-22T14:31:04;12.40;;;5.93;;
7807;SDS011;3949;49.254;8.894;2023-06-22T14:33:30;16.67;;;6.65;;
7807;SDS011;3949;49.254;8.894;2023-06-22T14:35:56;12.15;;;5.35;;
7807;SDS011;3949;49.254;8.894;2023-06-22T14:38:22;8.20;;;5.30;;
7807;SDS011;3949;49.254;8.894;2023-06-22T14:40:47;6.97;;;5.18;;
7807;SDS011;3949;49.254;8.894;2023-06-22T14:43:13;6.88;;;4.40;;
7807;SDS011;3949;49.254;8.894;2023-06-22T14:45:40;9.80;;;5.53;;
7807;SDS011;3949;49.254;8.894;2023-06-22T14:48:06;8.88;;;5.00;;
7807;SDS011;3949;49.254;8.894;2023-06-22T14:50:32;8.70;;;5.30;;
7807;SDS011;3949;49.254;8.894;2023-06-22T14:52:58;8.68;;;5.32;;
7807;SDS011;3949;49.254;8.894;2023-06-22T14:55:25;6.53;;;5.15;;
7807;SDS011;3949;49.254;8.894;2023-06-22T14:57:51;9.48;;;5.30;;
7807;SDS011;3949;49.254;8.894;2023-06-22T15:00:17;7.50;;;5.30;;
7807;SDS011;3949;49.254;8.894;2023-06-22T15:02:43;6.22;;;5.22;;
7807;SDS011;3949;49.254;8.894;2023-06-22T15:05:09;8.45;;;5.50;;
7807;SDS011;3949;49.254;8.894;2023-06-22T15:07:35;10.38;;;5.80;;
7807;SDS011;3949;49.254;8.894;2023-06-22T15:10:01;6.30;;;5.60;;
7807;SDS011;3949;49.254;8.894;2023-06-22T15:12:27;6.95;;;5.50;;
7807;SDS011;3949;49.254;8.894;2023-06-22T15:14:53;6.32;;;5.70;;